Time;durP1;ratioP1;P1;durP2;ratioP2;P2;SDS_P1;SDS_P2;PMS_P1;PMS_P2;Temp;Humidity;BMP_temperature;BMP_pressure;BME280_temperature;BME280_humidity;BME280_pressure;Samples;Min_cycle;Max_cycle;Signal;HPM_P1;HPM_P2
2023/10/22 00:02:58;;;;;;;29.67;15.52;;;;;;;11.47;78.73;100423.78;10336457;28;20410;-79
2023/10/22 00:07:59;;;;;;;49.63;14.65;;;;;;;11.60;78.66;100437.34;10337523;28;20049;-79
2023/10/22 00:13:00;;;;;;;26.02;13.65;;;;;;;11.99;78.24;100485.28;10346239;28;20060;-79
2023/10/22 00:18:00;;;;;;;23.98;11.75;;;;;;;12.20;77.37;100498.00;10418356;28;20099;-79
2023/10/22 00:23:01;;;;;;;21.85;8.40;;;;;;;12.16;75.67;100446.09;10417441;28;20497;-78
2023/10/22 00:28:05;;;;;;;10.07;5.30;;;;;;;12.28;74.61;100439.38;10417569;28;20041;-80
2023/10/22 00:33:06;;;;;;;11.77;5.40;;;;;;;13.05;73.28;100539.75;10417566;28;20041;-79
2023/10/22 00:38:07;;;;;;;13.27;6.40;;;;;;;13.02;72.42;100508.09;10416747;28;20038;-77
2023/10/22 00:43:08;;;;;;;17.60;7.18;;;;;;;13.32;72.43;100557.06;10399865;28;20057;-77
2023/10/22 00:48:09;;;;;;;17.52;7.05;;;;;;;13.17;73.58;100545.50;10416219;28;20041;-77
2023/10/22 00:53:14;;;;;;;16.38;6.88;;;;;;;13.22;75.15;100570.63;10417943;28;20041;-77
2023/10/22 00:58:15;;;;;;;;;;;;;;;13.29;76.10;100576.09;10415829;28;20042;-79
2023/10/22 01:03:17;;;;;;;8.35;4.85;;;;;;;13.11;75.99;100584.38;10415856;28;19921;-79
2023/10/22 01:08:18;;;;;;;12.18;4.88;;;;;;;12.83;77.73;100565.41;10415646;28;20408;-78
2023/10/22 01:13:18;;;;;;;13.90;4.78;;;;;;;12.69;78.96;100583.00;10415966;28;20116;-78
2023/10/22 01:18:19;;;;;;;11.80;4.43;;;;;;;12.77;80.09;100601.63;10397579;28;20041;-78
2023/10/22 01:23:21;;;;;;;12.00;4.15;;;;;;;12.76;81.13;100626.59;10415094;28;20051;-78
2023/10/22 01:28:22;;;;;;;11.00;2.97;;;;;;;12.63;82.58;100599.69;10414974;28;20402;-78
2023/10/22 01:33:23;;;;;;;5.40;2.35;;;;;;;12.83;83.70;100663.22;10415531;28;20041;-78
2023/10/22 01:38:24;;;;;;;5.07;2.10;;;;;;;12.66;84.36;100665.97;10397246;28;20460;-79
2023/10/22 01:43:24;;;;;;;3.20;1.50;;;;;;;12.30;84.96;100625.66;10414200;28;20110;-81
2023/10/22 01:48:25;;;;;;;3.47;1.40;;;;;;;12.54;85.28;100678.03;10414201;28;20060;-81
2023/10/22 01:53:26;;;;;;;4.85;1.98;;;;;;;12.34;85.80;100673.09;10414741;28;20048;-79
2023/10/22 01:58:27;;;;;;;4.13;1.48;;;;;;;12.44;86.85;100712.84;10415147;28;20128;-79
2023/10/22 02:03:27;;;;;;;3.78;1.27;;;;;;;12.43;87.06;100721.84;10413451;28;20124;-77
2023/10/22 02:08:28;;;;;;;6.13;1.15;;;;;;;12.44;87.32;100715.50;10413507;28;20064;-78
2023/10/22 02:13:29;;;;;;;6.30;2.20;;;;;;;12.48;86.94;100713.34;10396098;28;20408;-76
2023/10/22 02:18:30;;;;;;;15.82;7.68;;;;;;;12.17;87.13;100658.13;10413819;28;20132;-77
2023/10/22 02:23:30;;;;;;;6.78;2.47;;;;;;;12.58;86.87;100735.28;10413331;28;20045;-77
2023/10/22 02:28:32;;;;;;;6.32;2.70;;;;;;;12.56;86.82;100742.63;10413479;28;20040;-79
2023/10/22 02:33:33;;;;;;;5.30;2.45;;;;;;;12.25;87.78;100723.88;10412943;28;20064;-79
2023/10/22 02:38:39;;;;;;;12.02;2.70;;;;;;;12.39;88.53;100768.50;10413799;28;20045;-79
2023/10/22 02:43:40;;;;;;;7.75;3.17;;;;;;;12.36;88.29;100778.66;10413149;28;20069;-79
2023/10/22 02:48:41;;;;;;;8.60;3.22;;;;;;;12.24;88.90;100780.84;10394799;28;20049;-78
2023/10/22 02:53:43;;;;;;;21.65;3.72;;;;;;;11.45;90.01;100668.69;10413549;28;20037;-78
2023/10/22 02:58:44;;;;;;;78.93;6.78;;;;;;;11.90;89.30;100759.69;10413525;28;20077;-78
2023/10/22 03:03:45;;;;;;;77.03;6.28;;;;;;;12.19;89.66;100823.94;10412973;28;20076;-78
2023/10/22 03:08:46;;;;;;;55.67;5.40;;;;;;;12.21;89.48;100829.13;10413053;28;20045;-78
2023/10/22 03:13:49;;;;;;;17.80;4.40;;;;;;;12.31;90.09;100835.09;10411969;28;20041;-79
2023/10/22 03:18:50;;;;;;;10.93;2.57;;;;;;;12.18;89.73;100808.97;10412528;28;20493;-80
2023/10/22 03:23:50;;;;;;;11.43;2.08;;;;;;;12.29;89.42;100832.63;10412132;28;20046;-78
2023/10/22 03:28:51;;;;;;;3.15;1.23;;;;;;;12.23;89.22;100816.44;10413032;28;20044;-78
2023/10/22 03:33:52;;;;;;;7.75;1.00;;;;;;;12.24;89.24;100818.97;10419898;28;20451;-78
2023/10/22 03:38:53;;;;;;;5.47;2.35;;;;;;;12.43;88.90;100838.25;10419642;28;20099;-79
2023/10/22 03:43:54;;;;;;;17.35;10.20;;;;;;;12.07;88.53;100788.81;10419722;28;20065;-77
2023/10/22 03:48:57;;;;;;;42.03;14.88;;;;;;;12.41;88.83;100859.72;10420204;28;20045;-79
2023/10/22 03:53:57;;;;;;;27.55;6.78;;;;;;;12.16;88.65;100816.28;10419211;28;20053;-78
2023/10/22 03:59:00;;;;;;;24.17;8.85;;;;;;;12.54;88.39;100899.22;10418418;28;20052;-79
2023/10/22 04:04:00;;;;;;;52.97;24.33;;;;;;;12.21;88.25;100858.41;10418383;28;20052;-77
2023/10/22 04:09:01;;;;;;;52.33;21.30;;;;;;;12.23;88.43;100891.84;10410667;28;20041;-79
2023/10/22 04:14:02;;;;;;;19.08;4.43;;;;;;;12.49;88.36;100936.19;10348495;28;20450;-79
2023/10/22 04:19:03;;;;;;;8.48;1.00;;;;;;;12.36;88.04;100939.34;10336926;28;20046;-79
2023/10/22 04:24:04;;;;;;;10.73;0.80;;;;;;;11.98;88.04;100898.16;10347794;28;20501;-88
2023/10/22 04:29:06;;;;;;;2.65;0.30;;;;;;;11.95;88.25;100907.31;10322453;28;20516;-90
2023/10/22 04:34:07;;;;;;;5.28;0.55;;;;;;;12.10;88.09;100950.13;10336861;28;20146;-92
2023/10/22 04:39:18;;;;;;;;;;;;;;;;;;;;;
2023/10/22 04:50:30;;;;;;;1.42;0.40;;;;;;;12.44;88.22;101013.09;10336914;28;20437;-91
2023/10/22 05:02:11;;;;;;;1.20;0.20;;;;;;;10.85;85.76;100746.81;10337179;28;20049;-88
2023/10/22 05:07:39;;;;;;;6.22;0.52;;;;;;;11.28;85.91;100811.47;10335866;28;20073;-90
2023/10/22 05:13:10;;;;;;;3.50;0.28;;;;;;;11.84;84.64;100905.75;10331468;28;20042;-90
2023/10/22 05:18:30;;;;;;;3.15;0.50;;;;;;;11.30;83.54;100800.66;10334948;28;20065;-88
2023/10/22 05:24:04;;;;;;;0.80;0.40;;;;;;;12.00;83.02;100875.72;10334962;28;20540;-89
2023/10/22 05:30:00;;;;;;;3.60;0.50;;;;;;;12.33;81.82;100905.88;10318547;28;20058;-89
2023/10/22 05:35:03;;;;;;;1.23;0.40;;;;;;;11.93;80.00;100828.59;10327386;28;20058;-89
2023/10/22 05:51:31;;;;;;;2.95;0.32;;;;;;;12.38;79.54;100926.66;10416234;28;20051;-89
2023/10/22 05:56:32;;;;;;;7.25;0.47;;;;;;;11.70;78.66;100813.25;10414951;28;20077;-80
2023/10/22 06:01:51;;;;;;;6.88;0.70;;;;;;;12.67;78.62;100998.16;10401486;28;20041;-90
2023/10/22 06:06:54;;;;;;;8.38;1.27;;;;;;;12.45;78.01;100932.19;10416589;28;20044;-79
2023/10/22 06:11:55;;;;;;;8.15;2.92;;;;;;;13.53;77.41;101078.69;10414143;28;20137;-80
2023/10/22 06:16:56;;;;;;;9.02;1.27;;;;;;;13.08;76.99;101003.50;10415120;28;20044;-83
2023/10/22 06:21:57;;;;;;;4.85;1.25;;;;;;;13.60;76.69;101080.50;10396078;28;20520;-83
2023/10/22 06:26:59;;;;;;;6.15;1.10;;;;;;;12.61;76.54;100934.84;10413273;28;20557;-82
2023/10/22 06:31:59;;;;;;;4.88;1.13;;;;;;;12.78;76.50;100957.84;10413569;28;20048;-83
2023/10/22 06:37:00;;;;;;;2.28;0.95;;;;;;;13.46;75.92;101038.47;10396337;28;20431;-84
2023/10/22 06:42:01;;;;;;;3.97;1.00;;;;;;;13.21;74.98;100963.78;10413255;28;20057;-83
2023/10/22 06:47:02;;;;;;;9.63;1.45;;;;;;;14.05;74.58;101080.88;10413745;28;20052;-84
2023/10/22 06:52:03;;;;;;;11.77;1.38;;;;;;;13.95;73.14;101016.97;10413334;28;20497;-81
2023/10/22 06:57:04;;;;;;;2.53;0.63;;;;;;;13.40;72.95;100911.06;10412865;28;20037;-80
2023/10/22 07:02:05;;;;;;;6.50;0.80;;;;;;;14.10;72.47;101025.09;10412203;28;20448;-83
2023/10/22 07:07:06;;;;;;;4.60;0.93;;;;;;;14.28;72.38;101062.25;10419448;28;20041;-81
2023/10/22 07:12:06;;;;;;;3.55;0.60;;;;;;;14.37;72.00;101083.41;10421191;28;20539;-82
2023/10/22 07:17:07;;;;;;;1.20;0.47;;;;;;;14.56;71.48;101087.50;10402414;28;20048;-82
2023/10/22 07:22:08;;;;;;;5.05;1.00;;;;;;;14.09;71.11;100986.00;10420855;28;20522;-82
2023/10/22 07:27:09;;;;;;;2.92;1.02;;;;;;;14.83;70.02;101061.25;10391716;28;20092;-81
2023/10/22 07:32:10;;;;;;;35.58;18.52;;;;;;;14.35;69.14;100948.28;10359271;28;20109;-81
2023/10/22 07:37:11;;;;;;;10.65;3.53;;;;;;;15.15;67.57;101045.97;10338513;28;20077;-82
2023/10/22 07:42:12;;;;;;;6.28;2.10;;;;;;;14.35;66.36;100894.81;10338222;28;20066;-82
2023/10/22 07:47:13;;;;;;;4.63;1.50;;;;;;;14.35;65.97;100926.88;10352022;28;20058;-80
2023/10/22 07:52:14;;;;;;;7.35;1.60;;;;;;;15.04;64.78;100997.22;10372468;28;20107;-83
2023/10/22 07:57:14;;;;;;;10.18;1.58;;;;;;;15.43;64.82;101055.06;10366446;28;20050;-81
2023/10/22 08:02:15;;;;;;;5.30;1.50;;;;;;;15.57;64.18;101087.41;10359317;28;20133;-78
2023/10/22 08:07:19;;;;;;;7.40;1.50;;;;;;;15.75;63.42;101070.00;10359754;28;20050;-79
2023/10/22 08:12:20;;;;;;;8.10;4.57;;;;;;;14.70;63.21;100893.38;10377734;28;20033;-81
2023/10/22 08:17:20;;;;;;;7.45;1.73;;;;;;;15.61;62.49;101037.81;10377874;28;20561;-81
2023/10/22 08:22:21;;;;;;;12.98;2.63;;;;;;;15.94;61.54;101022.22;10376220;28;20038;-77
2023/10/22 08:27:22;;;;;;;5.30;1.40;;;;;;;15.99;60.47;100998.38;10376378;28;20037;-79
2023/10/22 08:32:23;;;;;;;7.55;1.63;;;;;;;16.22;60.57;101053.72;10376563;28;20410;-82
2023/10/22 08:37:23;;;;;;;5.90;1.80;;;;;;;15.86;60.30;100972.28;10375558;28;20140;-81
2023/10/22 08:42:26;;;;;;;2.20;1.20;;;;;;;16.14;60.08;101014.44;10376934;28;20073;-80
2023/10/22 08:47:28;;;;;;;4.70;2.03;;;;;;;16.39;59.28;101044.41;10375592;28;20045;-81
2023/10/22 08:52:29;;;;;;;5.60;1.90;;;;;;;15.91;59.32;100955.59;10376082;28;20108;-81
2023/10/22 08:57:31;;;;;;;7.72;1.88;;;;;;;15.73;58.95;100905.13;10377094;28;20481;-81
2023/10/22 09:02:31;;;;;;;4.45;1.67;;;;;;;16.08;58.91;100980.34;10375833;28;20042;-79
2023/10/22 09:07:51;;;;;;;12.13;2.00;;;;;;;16.63;58.41;101035.19;10363392;28;20132;-80
2023/10/22 09:12:53;;;;;;;6.00;2.45;;;;;;;16.22;57.97;100950.00;10375158;28;20585;-79
2023/10/22 09:18:01;;;;;;;12.48;7.28;;;;;;;16.38;57.48;100989.97;10375099;28;20045;-80
2023/10/22 09:23:19;;;;;;;7.90;2.33;;;;;;;16.73;57.49;101027.66;10403761;28;20046;-81
2023/10/22 09:28:25;;;;;;;5.15;1.73;;;;;;;16.20;56.86;100934.09;10413792;28;20109;-79
2023/10/22 09:33:37;;;;;;;6.40;3.33;;;;;;;16.90;57.33;100982.63;10413986;28;20037;-80
2023/10/22 09:38:48;;;;;;;5.85;2.20;;;;;;;17.11;56.18;100976.38;10415707;28;20037;-81
2023/10/22 09:43:57;;;;;;;9.98;1.73;;;;;;;17.14;55.24;100961.75;10415290;28;20068;-80
2023/10/22 09:49:03;;;;;;;4.45;2.00;;;;;;;17.43;55.69;100995.63;10414617;28;20049;-80
2023/10/22 09:54:06;;;;;;;7.75;1.85;;;;;;;17.08;55.95;100976.78;10415234;28;20041;-79
2023/10/22 09:59:07;;;;;;;12.07;2.50;;;;;;;17.05;55.54;100936.91;10412572;28;20042;-79
2023/10/22 10:04:09;;;;;;;4.05;1.92;;;;;;;17.28;56.04;100967.00;10412371;28;20049;-78
2023/10/22 10:09:11;;;;;;;5.65;3.05;;;;;;;17.20;56.14;100977.06;10393932;28;20041;-79
2023/10/22 10:14:13;;;;;;;9.18;2.45;;;;;;;17.02;55.74;100958.78;10369484;28;20046;-78
2023/10/22 10:19:21;;;;;;;11.98;3.05;;;;;;;17.39;56.08;100997.03;10371520;28;20452;-77
2023/10/22 10:24:29;;;;;;;10.15;3.03;;;;;;;17.51;55.87;101003.53;10372556;28;20038;-77
2023/10/22 10:29:32;;;;;;;5.65;2.00;;;;;;;17.25;55.68;100961.22;10372789;28;20124;-78
2023/10/22 10:34:36;;;;;;;28.88;2.60;;;;;;;17.51;55.97;101000.84;10372113;28;20038;-78
2023/10/22 10:39:53;;;;;;;7.65;2.53;;;;;;;17.37;56.58;100988.34;10371869;28;20125;-79
2023/10/22 10:45:02;;;;;;;5.40;2.47;;;;;;;17.46;56.59;100987.16;10372803;28;20070;-78
2023/10/22 10:50:17;;;;;;;5.97;2.50;;;;;;;17.26;55.83;100934.19;10372260;28;20084;-78
2023/10/22 10:55:21;;;;;;;9.68;2.30;;;;;;;17.68;56.76;100974.47;10359486;28;20406;-78
2023/10/22 11:00:28;;;;;;;17.25;2.78;;;;;;;17.15;56.86;100910.56;10367390;28;20452;-77
2023/10/22 11:05:42;;;;;;;11.88;2.95;;;;;;;17.53;56.47;100972.75;10354447;28;20488;-78
2023/10/22 11:10:45;;;;;;;19.58;3.05;;;;;;;17.46;56.83;100973.72;10350765;28;20099;-77
2023/10/22 11:15:45;;;;;;;8.75;3.35;;;;;;;17.21;56.97;100966.16;10354232;28;20044;-79
2023/10/22 11:20:56;;;;;;;6.68;2.60;;;;;;;17.16;57.87;100982.00;10354066;28;20038;-76
2023/10/22 11:25:57;;;;;;;6.75;2.50;;;;;;;16.77;57.90;100929.69;10371069;28;20563;-76
2023/10/22 11:30:58;;;;;;;10.15;3.72;;;;;;;16.93;57.94;100950.06;10371137;28;20038;-75
2023/10/22 11:36:00;;;;;;;4.10;2.60;;;;;;;16.95;58.19;100976.69;10370915;28;20559;-75
2023/10/22 11:41:04;;;;;;;8.55;2.53;;;;;;;16.95;58.45;100982.06;10371082;28;20037;-76
2023/10/22 11:46:05;;;;;;;6.82;2.38;;;;;;;16.46;58.37;100897.84;10371756;28;20045;-75
2023/10/22 11:51:06;;;;;;;7.35;2.30;;;;;;;16.91;58.50;100967.38;10373834;28;20042;-75
2023/10/22 11:56:07;;;;;;;4.15;1.90;;;;;;;16.60;58.19;100901.44;10378223;28;20504;-76
2023/10/22 12:01:07;;;;;;;4.50;2.05;;;;;;;16.88;58.70;100979.31;10378534;28;20042;-75
2023/10/22 12:06:08;;;;;;;9.57;2.40;;;;;;;16.77;59.21;100995.94;10376079;28;20044;-76
2023/10/22 12:11:10;;;;;;;18.88;2.85;;;;;;;16.28;59.23;100900.97;10377115;28;20046;-77
2023/10/22 12:16:11;;;;;;;7.57;1.85;;;;;;;16.68;59.51;100971.06;10377984;28;20034;-76
2023/10/22 12:21:11;;;;;;;8.05;2.63;;;;;;;16.34;59.85;100912.78;10377173;28;20038;-76
2023/10/22 12:26:12;;;;;;;22.00;2.97;;;;;;;16.44;60.07;100957.03;10370013;28;20104;-76
2023/10/22 12:31:13;;;;;;;15.30;3.10;;;;;;;16.08;60.45;100899.94;10376910;28;20493;-77
2023/10/22 12:36:13;;;;;;;9.73;3.33;;;;;;;16.42;60.66;100983.22;10376517;28;20040;-76
2023/10/22 12:41:14;;;;;;;33.83;4.28;;;;;;;16.39;61.01;100994.31;10376126;28;20058;-75
2023/10/22 12:46:15;;;;;;;19.35;5.53;;;;;;;16.06;61.08;100980.53;10375296;28;20137;-75
2023/10/22 12:51:16;;;;;;;8.30;2.90;;;;;;;16.04;61.26;101014.75;10374634;28;20069;-75
2023/10/22 12:56:19;;;;;;;18.95;6.30;;;;;;;15.71;61.67;100985.69;10375522;28;20042;-75
2023/10/22 13:01:20;;;;;;;18.83;5.10;;;;;;;15.73;62.36;101013.13;10374168;28;20044;-76
2023/10/22 13:06:21;;;;;;;5.47;2.20;;;;;;;15.10;62.55;100950.16;10362592;28;20041;-76
2023/10/22 13:11:22;;;;;;;11.38;2.38;;;;;;;15.06;63.00;100951.56;10345940;28;20133;-77
2023/10/22 13:16:23;;;;;;;16.13;4.05;;;;;;;15.29;63.48;101015.75;10362812;28;20049;-82
2023/10/22 13:21:23;;;;;;;11.65;3.17;;;;;;;15.25;63.87;101033.16;10334643;28;20065;-77
2023/10/22 13:26:24;;;;;;;20.65;6.30;;;;;;;14.88;64.59;101001.91;10334275;28;20057;-83
2023/10/22 13:31:25;;;;;;;11.98;2.78;;;;;;;15.01;64.81;101032.34;10343722;28;20061;-80
2023/10/22 13:36:26;;;;;;;12.20;2.17;;;;;;;14.87;65.16;101043.88;10363088;28;20530;-85
2023/10/22 13:41:27;;;;;;;12.98;2.60;;;;;;;14.35;64.69;100989.19;10364453;28;20053;-81
2023/10/22 13:46:27;;;;;;;6.25;2.38;;;;;;;14.42;64.86;101042.81;10357996;28;20125;-78
2023/10/22 13:51:28;;;;;;;9.30;3.40;;;;;;;14.22;65.05;101049.59;10359246;28;20042;-76
2023/10/22 13:56:29;;;;;;;1292.97;887.55;;;;;;;14.03;65.67;101035.66;10359458;28;20185;-77
2023/10/22 14:01:30;;;;;;;634.45;546.70;;;;;;;13.46;66.10;100971.75;10350705;28;20083;-76
2023/10/22 14:06:30;;;;;;;585.40;411.42;;;;;;;13.75;66.26;101056.59;10355432;28;20050;-76
2023/10/22 14:11:31;;;;;;;787.92;583.97;;;;;;;13.47;66.92;101049.00;10359730;28;20095;-76
2023/10/22 14:16:33;;;;;;;237.27;108.00;;;;;;;13.32;67.51;101052.53;10356365;28;20034;-76
2023/10/22 14:21:34;;;;;;;236.27;93.65;;;;;;;13.25;67.86;101068.34;10352212;28;20045;-76
2023/10/22 14:26:35;;;;;;;412.20;185.75;;;;;;;12.17;68.09;100919.16;10351255;28;20510;-76
2023/10/22 14:31:36;;;;;;;445.55;192.88;;;;;;;13.06;68.65;101080.16;10363393;28;20068;-76
2023/10/22 14:36:36;;;;;;;79.60;30.92;;;;;;;12.60;68.71;101025.66;10349177;28;20046;-76
2023/10/22 14:41:37;;;;;;;157.75;59.63;;;;;;;12.88;69.51;101082.16;10351697;28;20437;-76
2023/10/22 14:46:38;;;;;;;133.68;50.83;;;;;;;12.79;69.96;101087.47;10356770;28;20040;-79
2023/10/22 14:51:39;;;;;;;69.18;29.40;;;;;;;12.67;69.97;101091.44;10351930;28;20517;-76
2023/10/22 14:56:40;;;;;;;30.33;10.88;;;;;;;12.41;70.16;101062.22;10349727;28;20034;-78
2023/10/22 15:01:40;;;;;;;179.73;62.78;;;;;;;11.85;70.28;100989.16;10359194;28;20053;-79
2023/10/22 15:06:41;;;;;;;365.52;118.72;;;;;;;12.19;70.98;101063.66;10350052;28;20042;-78
2023/10/22 15:11:43;;;;;;;214.38;86.63;;;;;;;12.29;71.10;101095.50;10353298;28;20045;-78
2023/10/22 15:16:43;;;;;;;88.68;36.25;;;;;;;12.31;71.36;101117.50;10359161;28;20048;-78
2023/10/22 15:21:44;;;;;;;155.90;79.07;;;;;;;11.98;71.83;101085.38;10358445;28;20382;-78
2023/10/22 15:26:45;;;;;;;81.10;33.35;;;;;;;12.04;71.98;101118.53;10362760;28;20059;-79
2023/10/22 15:31:46;;;;;;;34.42;12.35;;;;;;;11.99;72.22;101128.81;10364281;28;20095;-78
2023/10/22 15:36:46;;;;;;;64.75;29.15;;;;;;;11.88;72.31;101128.09;10365661;28;20061;-78
2023/10/22 15:41:47;;;;;;;12.68;5.43;;;;;;;11.86;72.63;101129.25;10358247;28;20062;-79
2023/10/22 15:46:50;;;;;;;19.52;7.82;;;;;;;11.77;73.29;101131.00;10362153;28;20081;-78
2023/10/22 15:51:50;;;;;;;10.77;2.95;;;;;;;11.64;73.08;101123.44;10355652;28;20042;-78
2023/10/22 15:56:51;;;;;;;7.82;2.90;;;;;;;11.61;73.62;101131.72;10356916;28;20045;-78
2023/10/22 16:01:52;;;;;;;7.45;2.83;;;;;;;11.14;74.09;101059.38;10355493;28;20053;-79
2023/10/22 16:06:52;;;;;;;7.25;2.50;;;;;;;11.11;74.25;101073.81;10367887;28;20033;-78
2023/10/22 16:11:53;;;;;;;8.82;2.78;;;;;;;11.35;74.57;101130.84;10358311;28;20172;-78
2023/10/22 16:16:54;;;;;;;6.93;2.25;;;;;;;10.57;75.09;101019.00;10342701;28;20046;-78
2023/10/22 16:21:55;;;;;;;8.13;2.15;;;;;;;11.14;74.90;101124.03;10360500;28;20038;-77
2023/10/22 16:26:55;;;;;;;4.55;2.20;;;;;;;11.19;75.40;101143.03;10366766;28;20045;-80
2023/10/22 16:31:56;;;;;;;18.27;2.58;;;;;;;10.94;75.79;101106.53;10359782;28;20066;-74
2023/10/22 16:36:57;;;;;;;6.30;2.15;;;;;;;11.08;76.45;101142.41;10358998;28;20034;-75
2023/10/22 16:41:58;;;;;;;5.57;2.20;;;;;;;10.57;75.94;101054.38;10356972;28;20054;-72
2023/10/22 16:46:58;;;;;;;12.65;2.38;;;;;;;10.56;76.50;101071.31;10372298;28;20125;-78
2023/10/22 16:51:59;;;;;;;11.90;2.00;;;;;;;10.56;77.01;101086.38;10356293;28;20438;-80
2023/10/22 16:57:00;;;;;;;9.40;2.10;;;;;;;10.48;76.95;101068.56;10357405;28;20070;-75
2023/10/22 17:02:01;;;;;;;6.25;2.10;;;;;;;10.82;77.63;101129.03;10322829;28;20517;-73
2023/10/22 17:07:04;;;;;;;6.20;1.98;;;;;;;10.56;78.24;101089.03;10365479;28;20046;-79
2023/10/22 17:12:05;;;;;;;6.25;2.13;;;;;;;10.94;77.86;101154.41;10348661;28;20050;-80
2023/10/22 17:17:06;;;;;;;4.30;1.88;;;;;;;10.30;78.10;101049.94;10332947;28;20049;-78
2023/10/22 17:22:07;;;;;;;6.78;1.73;;;;;;;10.86;78.49;101152.50;10353404;28;20041;-77
2023/10/22 17:27:08;;;;;;;6.32;2.17;;;;;;;10.38;78.48;101073.94;10373270;28;20034;-77
2023/10/22 17:32:09;;;;;;;6.25;1.80;;;;;;;10.37;78.68;101071.41;10364859;28;20482;-83
2023/10/22 17:37:11;;;;;;;4.88;2.13;;;;;;;10.80;78.96;101146.94;10362314;28;20046;-83
2023/10/22 17:42:12;;;;;;;4.90;1.73;;;;;;;10.66;79.11;101145.63;10309466;28;1586640;-82
2023/10/22 17:47:13;;;;;;;4.90;2.17;;;;;;;10.45;79.25;101117.50;10364482;28;20041;-84
2023/10/22 17:52:13;;;;;;;3.97;1.88;;;;;;;10.28;79.75;101102.34;10366606;28;20511;-82
2023/10/22 17:57:17;;;;;;;3.65;1.48;;;;;;;10.40;79.88;101135.69;10353804;28;20034;-84
2023/10/22 18:02:18;;;;;;;17.20;2.40;;;;;;;10.12;80.00;101095.00;10331204;28;20054;-84
2023/10/22 18:07:19;;;;;;;3.67;1.73;;;;;;;10.30;79.80;101121.63;10352292;28;20045;-91
2023/10/22 18:12:20;;;;;;;9.65;1.92;;;;;;;10.15;80.24;101104.47;10338035;28;20053;-85
2023/10/22 18:17:21;;;;;;;2.75;1.50;;;;;;;10.16;80.36;101100.84;10357116;28;20038;-90
2023/10/22 18:22:22;;;;;;;2.97;1.75;;;;;;;9.79;80.14;101051.25;10355997;28;20080;-86
2023/10/22 18:27:23;;;;;;;10.65;2.22;;;;;;;9.83;80.39;101057.94;10349611;28;20490;-85
2023/10/22 18:32:25;;;;;;;4.75;2.28;;;;;;;10.04;81.04;101110.81;10351999;28;20053;-84
2023/10/22 18:37:26;;;;;;;10.57;1.95;;;;;;;9.71;80.83;101045.84;10369739;28;20045;-84
2023/10/22 18:42:27;;;;;;;3.58;1.48;;;;;;;9.57;80.90;101036.53;10372808;28;20061;-81
2023/10/22 18:47:28;;;;;;;4.15;1.80;;;;;;;9.98;81.05;101093.63;10372805;28;20405;-82
2023/10/22 18:52:29;;;;;;;18.35;1.77;;;;;;;8.73;81.02;100895.97;10371005;28;20289;-88
2023/10/22 18:57:30;;;;;;;4.30;1.80;;;;;;;9.98;81.27;101098.94;10372211;28;20057;-81
2023/10/22 19:02:31;;;;;;;4.57;1.80;;;;;;;9.86;81.74;101078.03;10378646;28;20509;-86
2023/10/22 19:07:34;;;;;;;5.38;2.05;;;;;;;9.63;82.11;101049.19;10380936;28;20069;-84
2023/10/22 19:12:37;;;;;;;3.17;1.90;;;;;;;9.35;81.75;101000.59;10379741;28;20050;-87
2023/10/22 19:17:38;;;;;;;6.13;2.45;;;;;;;9.18;82.06;100982.75;10380265;28;20489;-85
2023/10/22 19:22:39;;;;;;;3.00;1.98;;;;;;;9.26;82.32;100990.84;10379025;28;20141;-84
2023/10/22 19:27:40;;;;;;;4.43;2.50;;;;;;;9.10;82.71;100964.94;10379683;28;20136;-87
2023/10/22 19:32:42;;;;;;;3.08;2.42;;;;;;;9.09;83.27;100979.16;10372852;28;20033;-83
2023/10/22 19:37:43;;;;;;;3.83;2.45;;;;;;;9.11;84.10;100987.81;10339020;28;20050;-83
2023/10/22 19:42:43;;;;;;;5.50;2.83;;;;;;;8.81;84.39;100941.97;10338821;28;20062;-85
2023/10/22 19:47:44;;;;;;;6.57;3.17;;;;;;;8.83;85.35;100947.97;10351934;28;20041;-86
2023/10/22 19:52:45;;;;;;;8.07;2.92;;;;;;;8.93;85.96;100968.31;10369764;28;20042;-80
2023/10/22 19:57:46;;;;;;;7.85;2.80;;;;;;;9.20;86.44;101010.81;10364164;28;20046;-80
2023/10/22 20:02:47;;;;;;;4.68;3.35;;;;;;;9.00;87.41;100959.63;10352453;28;20046;-80
2023/10/22 20:07:48;;;;;;;6.80;3.78;;;;;;;9.17;87.21;101004.97;10337861;28;20449;-80
2023/10/22 20:12:49;;;;;;;4.57;3.30;;;;;;;8.93;87.72;100969.16;10336682;28;20045;-82
2023/10/22 20:17:51;;;;;;;8.13;3.58;;;;;;;8.98;88.23;100979.34;10349554;28;20387;-82
2023/10/22 20:22:52;;;;;;;13.98;3.75;;;;;;;8.11;87.89;100847.81;10377881;28;20073;-82
2023/10/22 20:27:52;;;;;;;5.88;3.63;;;;;;;8.61;88.14;100912.00;10377232;28;20521;-82
2023/10/22 20:32:53;;;;;;;6.20;3.70;;;;;;;8.52;88.17;100918.16;10376444;28;20048;-81
2023/10/22 20:37:54;;;;;;;8.55;3.97;;;;;;;8.22;89.11;100869.66;10377369;28;20064;-81
2023/10/22 20:42:55;;;;;;;8.32;4.15;;;;;;;9.33;89.62;101050.25;10375363;28;20062;-85
2023/10/22 20:47:55;;;;;;;6.28;4.00;;;;;;;8.60;90.21;100939.47;10376742;28;20532;-82
2023/10/22 20:52:56;;;;;;;7.65;4.95;;;;;;;9.21;91.15;101028.38;10374602;28;20152;-79
2023/10/22 20:57:57;;;;;;;9.02;5.32;;;;;;;8.96;92.13;100998.00;10376061;28;20041;-83
2023/10/22 21:02:58;;;;;;;12.23;6.07;;;;;;;8.90;92.76;100982.69;10376192;28;20037;-82
2023/10/22 21:07:59;;;;;;;12.25;6.78;;;;;;;9.29;94.37;101031.16;10374258;28;20412;-83
2023/10/22 21:13:00;;;;;;;11.25;7.15;;;;;;;8.17;95.06;100844.59;10375924;28;20409;-84
2023/10/22 21:18:01;;;;;;;15.27;7.57;;;;;;;8.69;96.50;100917.44;10373519;28;20037;-80
2023/10/22 21:23:02;;;;;;;15.52;8.55;;;;;;;9.06;97.85;100963.53;10373263;28;20046;-83
2023/10/22 21:28:03;;;;;;;19.73;9.77;;;;;;;9.08;98.31;100974.84;10374462;28;20049;-79
2023/10/22 21:33:03;;;;;;;16.33;9.50;;;;;;;9.05;98.92;100935.38;10373545;28;20048;-79
2023/10/22 21:38:04;;;;;;;14.13;9.60;;;;;;;9.01;99.97;100907.50;10372527;28;20034;-81
2023/10/22 21:43:05;;;;;;;16.45;10.05;;;;;;;9.47;100.00;100975.56;10374555;28;20425;-81
2023/10/22 21:48:06;;;;;;;16.20;10.57;;;;;;;9.44;100.00;100957.28;10373472;28;20525;-81
2023/10/22 21:53:06;;;;;;;16.17;9.95;;;;;;;9.03;100.00;100884.31;10373646;28;20042;-85
2023/10/22 21:58:11;;;;;;;19.48;10.55;;;;;;;9.91;100.00;101015.59;10356430;28;20034;-85
2023/10/22 22:03:13;;;;;;;13.82;9.85;;;;;;;9.05;100.00;100872.59;10374108;28;20045;-81
2023/10/22 22:08:14;;;;;;;18.08;9.70;;;;;;;8.79;100.00;100797.38;10372933;28;20038;-80
2023/10/22 22:13:16;;;;;;;16.25;10.10;;;;;;;9.40;100.00;100916.13;10373125;28;20057;-79
2023/10/22 22:18:17;;;;;;;13.25;9.98;;;;;;;9.65;100.00;100949.09;10373550;28;20041;-83
2023/10/22 22:23:19;;;;;;;14.63;9.75;;;;;;;8.70;100.00;100791.13;10373310;28;20045;-83
2023/10/22 22:28:20;;;;;;;15.15;9.85;;;;;;;9.03;100.00;100834.78;10373572;28;20072;-83
2023/10/22 22:33:21;;;;;;;16.10;10.52;;;;;;;9.32;100.00;100874.44;10371522;28;20587;-85
2023/10/22 22:38:22;;;;;;;18.10;10.57;;;;;;;9.92;100.00;100966.84;10373014;28;20042;-83
2023/10/22 22:43:23;;;;;;;13.90;10.02;;;;;;;9.32;100.00;100868.31;10355225;28;20062;-81
2023/10/22 22:48:24;;;;;;;12.50;10.07;;;;;;;9.27;100.00;100846.69;10372392;28;20054;-80
2023/10/22 22:53:25;;;;;;;14.05;10.45;;;;;;;8.94;100.00;100801.22;10372901;28;20515;-80
2023/10/22 22:58:25;;;;;;;15.13;9.93;;;;;;;9.01;100.00;100818.22;10372015;28;20425;-82
2023/10/22 23:03:26;;;;;;;13.73;10.38;;;;;;;9.02;100.00;100809.28;10407586;28;20057;-82
2023/10/22 23:08:28;;;;;;;12.50;10.35;;;;;;;9.44;100.00;100864.47;10413610;28;20069;-80
2023/10/22 23:13:29;;;;;;;11.73;9.93;;;;;;;9.78;100.00;100928.38;10411319;28;20440;-81
2023/10/22 23:18:30;;;;;;;14.55;10.40;;;;;;;9.78;100.00;100933.69;10413496;28;20052;-82
2023/10/22 23:23:31;;;;;;;14.13;11.63;;;;;;;8.91;100.00;100801.53;10413322;28;20397;-81
2023/10/22 23:28:32;;;;;;;16.10;11.48;;;;;;;8.85;100.00;100775.59;10395604;28;20041;-83